Maimiti — PBIJ — position and weather

sailwx.info

Track history (hours):
 
Tides and Currents Weather Stations Pressure Air Temp Water Temp Dewpoint Dewpoint Depression Visibility Wind Speed Wind Dir Waves Ship Positions

Maimiti

Last reported at 2015-Sep-02 14:33 UTC. Time now 2015-Sep-02 14:53 UTC.
Position N 53°27' E 006°51'.

Length 35 m; draft 6.4 m.

Type: Tug. MMSI: 244850959.

Date/timePositionNaut miles runAvg speedWind from/ knotsBaromVisibWave heightAir tempDewpointWater temp
2015-Sep-02 14:33N 53°27' E 006°51'0 0.0
2015-Sep-02 13:33N 53°27' E 006°51'0 0.0
2015-Sep-02 12:33N 53°27' E 006°51'0 0.0
2015-Sep-02 11:34N 53°27' E 006°51'0 0.0
2015-Sep-02 10:33N 53°27' E 006°51'0 0.0
2015-Sep-02 09:33N 53°27' E 006°51'1 0.6
2015-Sep-02 08:33N 53°27' E 006°50'1 0.6
2015-Sep-02 07:33N 53°27' E 006°51'0 0.0
2015-Sep-02 06:33N 53°27' E 006°51'0 0.0
2015-Sep-02 05:33N 53°27' E 006°51'0 0.0
2015-Sep-02 04:33N 53°27' E 006°51'0 0.0
2015-Sep-02 03:33N 53°27' E 006°51'0 0.0
2015-Sep-02 02:33N 53°27' E 006°51'0 0.0
2015-Sep-02 01:33N 53°27' E 006°51'0 0.0
2015-Sep-02 00:33N 53°27' E 006°51'0 0.0
2015-Sep-01 23:33N 53°27' E 006°51'0 0.0
2015-Sep-01 22:33N 53°27' E 006°51'0 0.0
2015-Sep-01 21:34N 53°27' E 006°51'0 0.0
2015-Sep-01 20:33N 53°27' E 006°51'0 0.0
2015-Sep-01 19:33N 53°27' E 006°51'0 0.0
2015-Sep-01 18:33N 53°27' E 006°51'0 0.0
2015-Sep-01 17:33N 53°27' E 006°51'0 0.0
2015-Sep-01 16:33N 53°27' E 006°51'0 0.0
2015-Sep-01 15:33N 53°27' E 006°51'0 0.0
2015-Sep-01 14:33N 53°27' E 006°51'0 0.0
2015-Sep-01 13:33N 53°27' E 006°51'0 0.0
2015-Sep-01 12:33N 53°27' E 006°51'0 0.0
2015-Sep-01 11:33N 53°27' E 006°51'1 1.0
2015-Sep-01 10:34N 53°27' E 006°50'1 0.6
2015-Sep-01 09:33N 53°27' E 006°50'0 0.2
2015-Sep-01 08:34N 53°27' E 006°50'1 0.5
2015-Sep-01 07:33N 53°27' E 006°49'0 0.0
2015-Sep-01 06:33N 53°27' E 006°49'0 0.0
2015-Sep-01 05:33N 53°27' E 006°49'0 0.0
2015-Sep-01 04:33N 53°27' E 006°49'0 0.0
2015-Sep-01 03:33N 53°27' E 006°49'0 0.0
2015-Sep-01 02:33N 53°27' E 006°49'0 0.0
2015-Sep-01 01:33N 53°27' E 006°49'0 0.0
2015-Sep-01 00:33N 53°27' E 006°49'0 0.0
2015-Aug-31 23:33N 53°27' E 006°49'0 0.0
2015-Aug-31 22:33N 53°27' E 006°49'0 0.0
2015-Aug-31 21:33N 53°27' E 006°49'0 0.0
2015-Aug-31 20:33N 53°27' E 006°49'1 0.7
2015-Aug-31 19:33N 53°28' E 006°50'5 5.5
2015-Aug-31 18:33N 53°32' E 006°44'5 5.1
2015-Aug-31 17:33N 53°35' E 006°37'4 3.8
2015-Aug-31 16:33N 53°37' E 006°32'4 3.9
2015-Aug-31 15:33N 53°37' E 006°25'4 3.8
2015-Aug-31 14:33N 53°38' E 006°19'3 3.2
2015-Aug-31 13:33N 53°41' E 006°17'57 4.6
2015-Aug-31 01:17N 54°36' E 006°33'30 5.8
2015-Aug-30 20:09N 55°06' E 006°36'6 6.1
2015-Aug-30 19:10N 55°12' E 006°36'4 6.1
2015-Aug-30 18:32N 55°16' E 006°37'6 5.7
2015-Aug-30 17:31N 55°21' E 006°39'6 6.0
2015-Aug-30 16:33N 55°27' E 006°43'6 5.8
2015-Aug-30 15:33N 55°32' E 006°48'6 5.6
2015-Aug-30 14:30N 55°37' E 006°52'6 5.6
2015-Aug-30 13:22N 55°43' E 006°57'5 5.6
2015-Aug-30 12:29N 55°47' E 007°01'6 5.6
2015-Aug-30 11:22N 55°53' E 007°06'60 5.4
2015-Aug-30 00:17N 56°46' E 007°55'4 5.4
2015-Aug-29 23:32N 56°50' E 007°58'5 5.2
2015-Aug-29 22:33N 56°55' E 008°03'97 4.1
2015-Aug-28 22:32N 57°46' E 010°35'3 3.2
2015-Aug-28 21:27N 57°47' E 010°42'9 2.2
2015-Aug-28 17:32N 57°38' E 010°41'2 1.9
2015-Aug-28 16:33N 57°36' E 010°42'2 1.8
2015-Aug-28 15:33N 57°35' E 010°42'4 1.8
2015-Aug-28 13:28N 57°38' E 010°41'1 1.2
2015-Aug-28 12:33N 57°37' E 010°41'1 1.3
2015-Aug-28 11:32N 57°36' E 010°42'2 1.0
2015-Aug-28 09:31N 57°34' E 010°43'38 2.9
2015-Aug-27 20:32N 56°59' E 010°20'5 5.1
2015-Aug-27 19:33N 56°60' E 010°11'5 4.6
2015-Aug-27 18:34N 57°03' E 010°05'1 1.2
2015-Aug-27 17:33N 57°03' E 010°03'0 0.0
2015-Aug-27 16:33N 57°03' E 010°03'0 0.0
2015-Aug-27 15:33N 57°03' E 010°03'0 0.0
2015-Aug-27 14:30N 57°03' E 010°03'0 0.0
2015-Aug-27 13:33N 57°03' E 010°03'0 0.0
2015-Aug-27 12:33N 57°03' E 010°03'0 0.0
2015-Aug-27 11:33N 57°03' E 010°03'0 0.0
2015-Aug-27 10:30N 57°03' E 010°03'0 0.0
2015-Aug-27 09:30N 57°03' E 010°03'0 0.0
2015-Aug-27 08:33N 57°03' E 010°03'0 0.0
2015-Aug-27 07:33N 57°03' E 010°03'0 0.0
2015-Aug-27 06:30N 57°03' E 010°03'0 0.0
2015-Aug-27 05:33N 57°03' E 010°03'0 0.0
2015-Aug-27 04:33N 57°03' E 010°03'0 0.0
2015-Aug-27 03:27N 57°03' E 010°03'0 0.0
2015-Aug-27 02:33N 57°03' E 010°03'0 0.0
2015-Aug-27 01:33N 57°03' E 010°03'0 0.0
2015-Aug-27 00:33N 57°03' E 010°03'0 0.0
2015-Aug-26 23:33N 57°03' E 010°03'0 0.0
2015-Aug-26 22:33N 57°03' E 010°03'0 0.0
2015-Aug-26 21:33N 57°03' E 010°03'0 0.0
2015-Aug-26 20:33N 57°03' E 010°03'0 0.0
2015-Aug-26 19:33N 57°03' E 010°03'0 0.0
2015-Aug-26 18:30N 57°03' E 010°03'0 0.0
2015-Aug-26 17:32N 57°03' E 010°03'0 0.0
2015-Aug-26 16:32N 57°03' E 010°03'0 0.0
2015-Aug-26 15:32N 57°03' E 010°03'0 0.0
2015-Aug-26 14:32N 57°03' E 010°03'0 0.0
2015-Aug-26 13:32N 57°03' E 010°03'0 0.0
2015-Aug-26 12:32N 57°03' E 010°03'0 0.0
2015-Aug-26 11:32N 57°03' E 010°03'0 0.0
2015-Aug-26 10:32N 57°03' E 010°03'0 0.0
2015-Aug-26 09:26N 57°03' E 010°03'0 0.0
2015-Aug-26 08:26N 57°03' E 010°03'0 0.0
2015-Aug-26 07:32N 57°03' E 010°03'0 0.0
2015-Aug-26 06:32N 57°03' E 010°03'1 0.9
2015-Aug-26 05:33N 57°03' E 010°04'131 4.1
2015-Aug-24 21:33N 54°55' E 010°55'5 5.2
2015-Aug-24 20:33N 54°50' E 010°52'7 5.2
2015-Aug-24 19:07N 54°43' E 010°54'3 5.2
2015-Aug-24 18:33N 54°41' E 010°58'5 5.1
2015-Aug-24 17:33N 54°38' E 011°05'5 5.5
2015-Aug-24 16:33N 54°35' E 011°13'5 5.4
2015-Aug-24 15:33N 54°33' E 011°22'5 5.4
2015-Aug-24 14:33N 54°30' E 011°30'6 6.4
2015-Aug-24 13:33N 54°26' E 011°39'6 6.0
2015-Aug-24 12:33N 54°22' E 011°46'6 5.9
2015-Aug-24 11:34N 54°18' E 011°54'6 5.7
2015-Aug-24 10:29N 54°14' E 012°01'4 4.9
2015-Aug-24 09:34N 54°11' E 012°06'2 1.8
2015-Aug-24 08:31N 54°09' E 012°08'0 0.0
2015-Aug-24 07:25N 54°09' E 012°08'0 0.0
2015-Aug-24 06:16N 54°09' E 012°08'0 0.0
2015-Aug-24 05:28N 54°09' E 012°08'1 1.4
2015-Aug-24 04:28N 54°10' E 012°06'9 9.6
2015-Aug-24 03:33N 54°18' E 011°59'9 9.3
2015-Aug-24 02:34N 54°23' E 011°46'10 9.9
2015-Aug-24 01:33N 54°28' E 011°32'10 9.5
2015-Aug-24 00:33N 54°33' E 011°17'10 9.3
2015-Aug-23 23:30N 54°34' E 011°01'14 9.9
2015-Aug-23 22:03N 54°33' E 010°36'510.1
2015-Aug-23 21:33N 54°32' E 010°28'10 9.6
2015-Aug-23 20:34N 54°26' E 010°14'6 5.7
2015-Aug-23 19:33N 54°22' E 010°08'8 8.0
2015-Aug-23 18:32N 54°21' E 009°54'7 6.9
2015-Aug-23 17:32N 54°19' E 009°43'19 6.3
2015-Aug-23 14:33N 54°06' E 009°20'  
Track history (hours):
 
Tides and Currents Weather Stations Pressure Air Temp Water Temp Dewpoint Dewpoint Depression Visibility Wind Speed Wind Dir Waves Ship Positions

Maimiti

Last reported at 2015-Sep-02 14:33 UTC. Time now 2015-Sep-02 14:53 UTC.
Position N 53°27' E 006°51'.

Length 35 m; draft 6.4 m.

Type: Tug. MMSI: 244850959.

Date/timePositionNaut miles runAvg speedWind from/ knotsBaromVisibWave heightAir tempDewpointWater temp
2015-Sep-02 14:33N 53°27' E 006°51'0 0.0
2015-Sep-02 13:33N 53°27' E 006°51'0 0.0
2015-Sep-02 12:33N 53°27' E 006°51'0 0.0
2015-Sep-02 11:34N 53°27' E 006°51'0 0.0
2015-Sep-02 10:33N 53°27' E 006°51'0 0.0
2015-Sep-02 09:33N 53°27' E 006°51'1 0.6
2015-Sep-02 08:33N 53°27' E 006°50'1 0.6
2015-Sep-02 07:33N 53°27' E 006°51'0 0.0
2015-Sep-02 06:33N 53°27' E 006°51'0 0.0
2015-Sep-02 05:33N 53°27' E 006°51'0 0.0
2015-Sep-02 04:33N 53°27' E 006°51'0 0.0
2015-Sep-02 03:33N 53°27' E 006°51'0 0.0
2015-Sep-02 02:33N 53°27' E 006°51'0 0.0
2015-Sep-02 01:33N 53°27' E 006°51'0 0.0
2015-Sep-02 00:33N 53°27' E 006°51'0 0.0
2015-Sep-01 23:33N 53°27' E 006°51'0 0.0
2015-Sep-01 22:33N 53°27' E 006°51'0 0.0
2015-Sep-01 21:34N 53°27' E 006°51'0 0.0
2015-Sep-01 20:33N 53°27' E 006°51'0 0.0
2015-Sep-01 19:33N 53°27' E 006°51'0 0.0
2015-Sep-01 18:33N 53°27' E 006°51'0 0.0
2015-Sep-01 17:33N 53°27' E 006°51'0 0.0
2015-Sep-01 16:33N 53°27' E 006°51'0 0.0
2015-Sep-01 15:33N 53°27' E 006°51'0 0.0
2015-Sep-01 14:33N 53°27' E 006°51'0 0.0
2015-Sep-01 13:33N 53°27' E 006°51'0 0.0
2015-Sep-01 12:33N 53°27' E 006°51'0 0.0
2015-Sep-01 11:33N 53°27' E 006°51'1 1.0
2015-Sep-01 10:34N 53°27' E 006°50'1 0.6
2015-Sep-01 09:33N 53°27' E 006°50'0 0.2
2015-Sep-01 08:34N 53°27' E 006°50'1 0.5
2015-Sep-01 07:33N 53°27' E 006°49'0 0.0
2015-Sep-01 06:33N 53°27' E 006°49'0 0.0
2015-Sep-01 05:33N 53°27' E 006°49'0 0.0
2015-Sep-01 04:33N 53°27' E 006°49'0 0.0
2015-Sep-01 03:33N 53°27' E 006°49'0 0.0
2015-Sep-01 02:33N 53°27' E 006°49'0 0.0
2015-Sep-01 01:33N 53°27' E 006°49'0 0.0
2015-Sep-01 00:33N 53°27' E 006°49'0 0.0
2015-Aug-31 23:33N 53°27' E 006°49'0 0.0
2015-Aug-31 22:33N 53°27' E 006°49'0 0.0
2015-Aug-31 21:33N 53°27' E 006°49'0 0.0
2015-Aug-31 20:33N 53°27' E 006°49'1 0.7
2015-Aug-31 19:33N 53°28' E 006°50'5 5.5
2015-Aug-31 18:33N 53°32' E 006°44'5 5.1
2015-Aug-31 17:33N 53°35' E 006°37'4 3.8
2015-Aug-31 16:33N 53°37' E 006°32'4 3.9
2015-Aug-31 15:33N 53°37' E 006°25'4 3.8
2015-Aug-31 14:33N 53°38' E 006°19'3 3.2
2015-Aug-31 13:33N 53°41' E 006°17'57 4.6
2015-Aug-31 01:17N 54°36' E 006°33'30 5.8
2015-Aug-30 20:09N 55°06' E 006°36'6 6.1
2015-Aug-30 19:10N 55°12' E 006°36'4 6.1
2015-Aug-30 18:32N 55°16' E 006°37'6 5.7
2015-Aug-30 17:31N 55°21' E 006°39'6 6.0
2015-Aug-30 16:33N 55°27' E 006°43'6 5.8
2015-Aug-30 15:33N 55°32' E 006°48'6 5.6
2015-Aug-30 14:30N 55°37' E 006°52'6 5.6
2015-Aug-30 13:22N 55°43' E 006°57'5 5.6
2015-Aug-30 12:29N 55°47' E 007°01'6 5.6
2015-Aug-30 11:22N 55°53' E 007°06'60 5.4
2015-Aug-30 00:17N 56°46' E 007°55'4 5.4
2015-Aug-29 23:32N 56°50' E 007°58'5 5.2
2015-Aug-29 22:33N 56°55' E 008°03'97 4.1
2015-Aug-28 22:32N 57°46' E 010°35'3 3.2
2015-Aug-28 21:27N 57°47' E 010°42'9 2.2
2015-Aug-28 17:32N 57°38' E 010°41'2 1.9
2015-Aug-28 16:33N 57°36' E 010°42'2 1.8
2015-Aug-28 15:33N 57°35' E 010°42'4 1.8
2015-Aug-28 13:28N 57°38' E 010°41'1 1.2
2015-Aug-28 12:33N 57°37' E 010°41'1 1.3
2015-Aug-28 11:32N 57°36' E 010°42'2 1.0
2015-Aug-28 09:31N 57°34' E 010°43'38 2.9
2015-Aug-27 20:32N 56°59' E 010°20'5 5.1
2015-Aug-27 19:33N 56°60' E 010°11'5 4.6
2015-Aug-27 18:34N 57°03' E 010°05'1 1.2
2015-Aug-27 17:33N 57°03' E 010°03'0 0.0
2015-Aug-27 16:33N 57°03' E 010°03'0 0.0
2015-Aug-27 15:33N 57°03' E 010°03'0 0.0
2015-Aug-27 14:30N 57°03' E 010°03'0 0.0
2015-Aug-27 13:33N 57°03' E 010°03'0 0.0
2015-Aug-27 12:33N 57°03' E 010°03'0 0.0
2015-Aug-27 11:33N 57°03' E 010°03'0 0.0
2015-Aug-27 10:30N 57°03' E 010°03'0 0.0
2015-Aug-27 09:30N 57°03' E 010°03'0 0.0
2015-Aug-27 08:33N 57°03' E 010°03'0 0.0
2015-Aug-27 07:33N 57°03' E 010°03'0 0.0
2015-Aug-27 06:30N 57°03' E 010°03'0 0.0
2015-Aug-27 05:33N 57°03' E 010°03'0 0.0
2015-Aug-27 04:33N 57°03' E 010°03'0 0.0
2015-Aug-27 03:27N 57°03' E 010°03'0 0.0
2015-Aug-27 02:33N 57°03' E 010°03'0 0.0
2015-Aug-27 01:33N 57°03' E 010°03'0 0.0
2015-Aug-27 00:33N 57°03' E 010°03'0 0.0
2015-Aug-26 23:33N 57°03' E 010°03'0 0.0
2015-Aug-26 22:33N 57°03' E 010°03'0 0.0
2015-Aug-26 21:33N 57°03' E 010°03'0 0.0
2015-Aug-26 20:33N 57°03' E 010°03'0 0.0
2015-Aug-26 19:33N 57°03' E 010°03'0 0.0
2015-Aug-26 18:30N 57°03' E 010°03'0 0.0
2015-Aug-26 17:32N 57°03' E 010°03'0 0.0
2015-Aug-26 16:32N 57°03' E 010°03'0 0.0
2015-Aug-26 15:32N 57°03' E 010°03'0 0.0
2015-Aug-26 14:32N 57°03' E 010°03'0 0.0
2015-Aug-26 13:32N 57°03' E 010°03'0 0.0
2015-Aug-26 12:32N 57°03' E 010°03'0 0.0
2015-Aug-26 11:32N 57°03' E 010°03'0 0.0
2015-Aug-26 10:32N 57°03' E 010°03'0 0.0
2015-Aug-26 09:26N 57°03' E 010°03'0 0.0
2015-Aug-26 08:26N 57°03' E 010°03'0 0.0
2015-Aug-26 07:32N 57°03' E 010°03'0 0.0
2015-Aug-26 06:32N 57°03' E 010°03'1 0.9
2015-Aug-26 05:33N 57°03' E 010°04'131 4.1
2015-Aug-24 21:33N 54°55' E 010°55'5 5.2
2015-Aug-24 20:33N 54°50' E 010°52'7 5.2
2015-Aug-24 19:07N 54°43' E 010°54'3 5.2
2015-Aug-24 18:33N 54°41' E 010°58'5 5.1
2015-Aug-24 17:33N 54°38' E 011°05'5 5.5
2015-Aug-24 16:33N 54°35' E 011°13'5 5.4
2015-Aug-24 15:33N 54°33' E 011°22'5 5.4
2015-Aug-24 14:33N 54°30' E 011°30'6 6.4
2015-Aug-24 13:33N 54°26' E 011°39'6 6.0
2015-Aug-24 12:33N 54°22' E 011°46'6 5.9
2015-Aug-24 11:34N 54°18' E 011°54'6 5.7
2015-Aug-24 10:29N 54°14' E 012°01'4 4.9
2015-Aug-24 09:34N 54°11' E 012°06'2 1.8
2015-Aug-24 08:31N 54°09' E 012°08'0 0.0
2015-Aug-24 07:25N 54°09' E 012°08'0 0.0
2015-Aug-24 06:16N 54°09' E 012°08'0 0.0
2015-Aug-24 05:28N 54°09' E 012°08'1 1.4
2015-Aug-24 04:28N 54°10' E 012°06'9 9.6
2015-Aug-24 03:33N 54°18' E 011°59'9 9.3
2015-Aug-24 02:34N 54°23' E 011°46'10 9.9
2015-Aug-24 01:33N 54°28' E 011°32'10 9.5
2015-Aug-24 00:33N 54°33' E 011°17'10 9.3
2015-Aug-23 23:30N 54°34' E 011°01'14 9.9
2015-Aug-23 22:03N 54°33' E 010°36'510.1
2015-Aug-23 21:33N 54°32' E 010°28'10 9.6
2015-Aug-23 20:34N 54°26' E 010°14'6 5.7
2015-Aug-23 19:33N 54°22' E 010°08'8 8.0
2015-Aug-23 18:32N 54°21' E 009°54'7 6.9
2015-Aug-23 17:32N 54°19' E 009°43'19 6.3
2015-Aug-23 14:33N 54°06' E 009°20'  

Dump ship's entire track history